sensor_id;sensor_type;location;lat;lon;timestamp;temperature;humidity
85333;DHT22;75747;53.652;10.168;2024-02-15T00:00:47;10.90;100.00
85333;DHT22;75747;53.652;10.168;2024-02-15T00:03:13;10.90;100.00
85333;DHT22;75747;53.652;10.168;2024-02-15T00:05:39;10.90;100.00
85333;DHT22;75747;53.652;10.168;2024-02-15T00:08:05;10.90;100.00
85333;DHT22;75747;53.652;10.168;2024-02-15T00:10:32;10.90;100.00
85333;DHT22;75747;53.652;10.168;2024-02-15T00:12:58;11.00;100.00
85333;DHT22;75747;53.652;10.168;2024-02-15T00:15:23;10.90;100.00
85333;DHT22;75747;53.652;10.168;2024-02-15T00:17:49;11.00;100.00
85333;DHT22;75747;53.652;10.168;2024-02-15T00:20:15;10.90;100.00
85333;DHT22;75747;53.652;10.168;2024-02-15T00:22:43;11.00;100.00
85333;DHT22;75747;53.652;10.168;2024-02-15T00:25:09;11.00;100.00
85333;DHT22;75747;53.652;10.168;2024-02-15T00:27:36;10.90;100.00
85333;DHT22;75747;53.652;10.168;2024-02-15T00:30:03;10.90;100.00
85333;DHT22;75747;53.652;10.168;2024-02-15T00:32:30;10.90;100.00
85333;DHT22;75747;53.652;10.168;2024-02-15T00:34:56;11.00;100.00
85333;DHT22;75747;53.652;10.168;2024-02-15T00:37:22;11.00;100.00
85333;DHT22;75747;53.652;10.168;2024-02-15T00:39:48;11.00;100.00
85333;DHT22;75747;53.652;10.168;2024-02-15T00:42:13;11.00;100.00
85333;DHT22;75747;53.652;10.168;2024-02-15T00:44:41;11.10;100.00
85333;DHT22;75747;53.652;10.168;2024-02-15T00:47:09;11.10;100.00
85333;DHT22;75747;53.652;10.168;2024-02-15T00:49:35;11.00;100.00
85333;DHT22;75747;53.652;10.168;2024-02-15T00:52:01;11.10;100.00
85333;DHT22;75747;53.652;10.168;2024-02-15T00:54:27;11.10;100.00
85333;DHT22;75747;53.652;10.168;2024-02-15T00:56:52;11.00;100.00
85333;DHT22;75747;53.652;10.168;2024-02-15T00:59:18;11.00;100.00
85333;DHT22;75747;53.652;10.168;2024-02-15T01:01:44;11.00;100.00
85333;DHT22;75747;53.652;10.168;2024-02-15T01:04:10;11.10;100.00
85333;DHT22;75747;53.652;10.168;2024-02-15T01:06:36;11.10;100.00
85333;DHT22;75747;53.652;10.168;2024-02-15T01:09:02;11.10;100.00
85333;DHT22;75747;53.652;10.168;2024-02-15T01:11:29;11.10;100.00
85333;DHT22;75747;53.652;10.168;2024-02-15T01:13:57;11.10;100.00
85333;DHT22;75747;53.652;10.168;2024-02-15T01:16:24;11.10;100.00
85333;DHT22;75747;53.652;10.168;2024-02-15T01:18:50;11.10;100.00
85333;DHT22;75747;53.652;10.168;2024-02-15T01:21:15;11.10;100.00
85333;DHT22;75747;53.652;10.168;2024-02-15T01:23:42;11.10;100.00
85333;DHT22;75747;53.652;10.168;2024-02-15T01:26:08;11.10;100.00
85333;DHT22;75747;53.652;10.168;2024-02-15T01:28:34;11.10;100.00
85333;DHT22;75747;53.652;10.168;2024-02-15T01:30:59;11.10;100.00
85333;DHT22;75747;53.652;10.168;2024-02-15T01:33:25;11.10;100.00
85333;DHT22;75747;53.652;10.168;2024-02-15T01:35:52;11.10;100.00
85333;DHT22;75747;53.652;10.168;2024-02-15T01:38:17;11.10;100.00
85333;DHT22;75747;53.652;10.168;2024-02-15T01:40:43;11.10;100.00
85333;DHT22;75747;53.652;10.168;2024-02-15T01:43:09;11.10;100.00
85333;DHT22;75747;53.652;10.168;2024-02-15T01:45:34;11.10;100.00
85333;DHT22;75747;53.652;10.168;2024-02-15T01:48:01;11.10;100.00
85333;DHT22;75747;53.652;10.168;2024-02-15T01:50:29;11.10;100.00
85333;DHT22;75747;53.652;10.168;2024-02-15T01:52:57;11.10;100.00
85333;DHT22;75747;53.652;10.168;2024-02-15T01:55:23;11.10;100.00
85333;DHT22;75747;53.652;10.168;2024-02-15T01:57:49;11.10;100.00
85333;DHT22;75747;53.652;10.168;2024-02-15T02:00:18;11.10;100.00
85333;DHT22;75747;53.652;10.168;2024-02-15T02:02:45;11.10;100.00
85333;DHT22;75747;53.652;10.168;2024-02-15T02:05:11;11.10;100.00
85333;DHT22;75747;53.652;10.168;2024-02-15T02:07:40;11.10;100.00
85333;DHT22;75747;53.652;10.168;2024-02-15T02:10:07;11.10;100.00
85333;DHT22;75747;53.652;10.168;2024-02-15T02:12:32;11.10;100.00
85333;DHT22;75747;53.652;10.168;2024-02-15T02:14:58;11.10;100.00
85333;DHT22;75747;53.652;10.168;2024-02-15T02:17:24;11.10;100.00
85333;DHT22;75747;53.652;10.168;2024-02-15T02:19:50;11.10;100.00
85333;DHT22;75747;53.652;10.168;2024-02-15T02:22:16;11.10;100.00
85333;DHT22;75747;53.652;10.168;2024-02-15T02:25:11;11.20;100.00
85333;DHT22;75747;53.652;10.168;2024-02-15T02:27:38;11.20;100.00
85333;DHT22;75747;53.652;10.168;2024-02-15T02:30:05;11.20;100.00
85333;DHT22;75747;53.652;10.168;2024-02-15T02:32:34;11.20;100.00
85333;DHT22;75747;53.652;10.168;2024-02-15T02:35:01;11.20;100.00
85333;DHT22;75747;53.652;10.168;2024-02-15T02:37:28;11.20;100.00
85333;DHT22;75747;53.652;10.168;2024-02-15T02:39:54;11.20;100.00
85333;DHT22;75747;53.652;10.168;2024-02-15T02:42:20;11.20;100.00
85333;DHT22;75747;53.652;10.168;2024-02-15T02:44:46;11.20;100.00
85333;DHT22;75747;53.652;10.168;2024-02-15T02:47:12;11.20;100.00
85333;DHT22;75747;53.652;10.168;2024-02-15T02:49:38;11.20;100.00
85333;DHT22;75747;53.652;10.168;2024-02-15T02:52:04;11.20;100.00
85333;DHT22;75747;53.652;10.168;2024-02-15T02:54:29;11.20;100.00
85333;DHT22;75747;53.652;10.168;2024-02-15T02:56:55;11.20;100.00
85333;DHT22;75747;53.652;10.168;2024-02-15T02:59:21;11.20;100.00
85333;DHT22;75747;53.652;10.168;2024-02-15T03:01:47;11.20;100.00
85333;DHT22;75747;53.652;10.168;2024-02-15T03:04:15;11.20;100.00
85333;DHT22;75747;53.652;10.168;2024-02-15T03:06:42;11.20;100.00
85333;DHT22;75747;53.652;10.168;2024-02-15T03:09:08;11.20;100.00
85333;DHT22;75747;53.652;10.168;2024-02-15T03:11:35;11.20;100.00
85333;DHT22;75747;53.652;10.168;2024-02-15T03:14:01;11.20;100.00
85333;DHT22;75747;53.652;10.168;2024-02-15T03:16:32;11.20;100.00
85333;DHT22;75747;53.652;10.168;2024-02-15T03:18:59;11.20;100.00
85333;DHT22;75747;53.652;10.168;2024-02-15T03:21:28;11.20;100.00
85333;DHT22;75747;53.652;10.168;2024-02-15T03:23:53;11.20;100.00
85333;DHT22;75747;53.652;10.168;2024-02-15T03:26:32;11.20;100.00
85333;DHT22;75747;53.652;10.168;2024-02-15T03:29:06;11.30;100.00
85333;DHT22;75747;53.652;10.168;2024-02-15T03:31:33;11.20;100.00
85333;DHT22;75747;53.652;10.168;2024-02-15T03:34:04;11.30;100.00
85333;DHT22;75747;53.652;10.168;2024-02-15T03:36:30;11.30;100.00
85333;DHT22;75747;53.652;10.168;2024-02-15T03:38:55;11.20;100.00
85333;DHT22;75747;53.652;10.168;2024-02-15T03:41:22;11.30;100.00
85333;DHT22;75747;53.652;10.168;2024-02-15T03:43:47;11.20;100.00
85333;DHT22;75747;53.652;10.168;2024-02-15T03:46:13;11.20;100.00
85333;DHT22;75747;53.652;10.168;2024-02-15T03:48:42;11.20;100.00
85333;DHT22;75747;53.652;10.168;2024-02-15T03:51:15;11.30;100.00
85333;DHT22;75747;53.652;10.168;2024-02-15T03:53:41;11.30;100.00
85333;DHT22;75747;53.652;10.168;2024-02-15T03:56:06;11.30;100.00
85333;DHT22;75747;53.652;10.168;2024-02-15T03:58:34;11.20;100.00
85333;DHT22;75747;53.652;10.168;2024-02-15T04:01:00;11.30;100.00
85333;DHT22;75747;53.652;10.168;2024-02-15T04:03:26;11.30;100.00
85333;DHT22;75747;53.652;10.168;2024-02-15T04:05:52;11.30;100.00
85333;DHT22;75747;53.652;10.168;2024-02-15T04:08:18;11.30;100.00
85333;DHT22;75747;53.652;10.168;2024-02-15T04:10:44;11.30;100.00
85333;DHT22;75747;53.652;10.168;2024-02-15T04:13:11;11.30;100.00
85333;DHT22;75747;53.652;10.168;2024-02-15T04:15:36;11.30;100.00
85333;DHT22;75747;53.652;10.168;2024-02-15T04:18:02;11.30;100.00
85333;DHT22;75747;53.652;10.168;2024-02-15T04:20:28;11.30;100.00
85333;DHT22;75747;53.652;10.168;2024-02-15T04:22:54;11.30;100.00
85333;DHT22;75747;53.652;10.168;2024-02-15T04:25:22;11.30;100.00
85333;DHT22;75747;53.652;10.168;2024-02-15T04:27:53;11.30;100.00
85333;DHT22;75747;53.652;10.168;2024-02-15T04:30:19;11.40;100.00
85333;DHT22;75747;53.652;10.168;2024-02-15T04:32:45;11.40;100.00
85333;DHT22;75747;53.652;10.168;2024-02-15T04:35:12;11.40;100.00
85333;DHT22;75747;53.652;10.168;2024-02-15T04:37:38;11.40;100.00
85333;DHT22;75747;53.652;10.168;2024-02-15T04:40:04;11.40;100.00
85333;DHT22;75747;53.652;10.168;2024-02-15T04:42:36;11.40;100.00
85333;DHT22;75747;53.652;10.168;2024-02-15T04:45:07;11.40;100.00
85333;DHT22;75747;53.652;10.168;2024-02-15T04:47:34;11.40;100.00
85333;DHT22;75747;53.652;10.168;2024-02-15T04:50:00;11.30;100.00
85333;DHT22;75747;53.652;10.168;2024-02-15T04:52:28;11.40;100.00
85333;DHT22;75747;53.652;10.168;2024-02-15T04:54:53;11.40;100.00
85333;DHT22;75747;53.652;10.168;2024-02-15T04:57:20;11.40;100.00
85333;DHT22;75747;53.652;10.168;2024-02-15T04:59:46;11.40;100.00
85333;DHT22;75747;53.652;10.168;2024-02-15T05:02:14;11.30;100.00
85333;DHT22;75747;53.652;10.168;2024-02-15T05:04:39;11.30;100.00
85333;DHT22;75747;53.652;10.168;2024-02-15T05:07:08;11.40;100.00
85333;DHT22;75747;53.652;10.168;2024-02-15T05:09:34;11.40;100.00
85333;DHT22;75747;53.652;10.168;2024-02-15T05:12:00;11.40;100.00
85333;DHT22;75747;53.652;10.168;2024-02-15T05:14:31;11.40;100.00
85333;DHT22;75747;53.652;10.168;2024-02-15T05:16:56;11.40;100.00
85333;DHT22;75747;53.652;10.168;2024-02-15T05:19:22;11.40;100.00
85333;DHT22;75747;53.652;10.168;2024-02-15T05:21:49;11.40;100.00
85333;DHT22;75747;53.652;10.168;2024-02-15T05:24:15;11.40;100.00
85333;DHT22;75747;53.652;10.168;2024-02-15T05:26:43;11.30;100.00
85333;DHT22;75747;53.652;10.168;2024-02-15T05:29:12;11.40;100.00
85333;DHT22;75747;53.652;10.168;2024-02-15T05:31:38;11.40;100.00
85333;DHT22;75747;53.652;10.168;2024-02-15T05:34:06;11.40;100.00
85333;DHT22;75747;53.652;10.168;2024-02-15T05:36:37;11.40;100.00
85333;DHT22;75747;53.652;10.168;2024-02-15T05:39:04;11.40;100.00
85333;DHT22;75747;53.652;10.168;2024-02-15T05:41:31;11.40;100.00
85333;DHT22;75747;53.652;10.168;2024-02-15T05:44:00;11.40;100.00
85333;DHT22;75747;53.652;10.168;2024-02-15T05:46:25;11.40;100.00
85333;DHT22;75747;53.652;10.168;2024-02-15T05:48:53;11.40;100.00
85333;DHT22;75747;53.652;10.168;2024-02-15T05:51:19;11.40;100.00
85333;DHT22;75747;53.652;10.168;2024-02-15T05:53:45;11.40;100.00
85333;DHT22;75747;53.652;10.168;2024-02-15T05:56:11;11.40;100.00
85333;DHT22;75747;53.652;10.168;2024-02-15T05:58:38;11.40;100.00
85333;DHT22;75747;53.652;10.168;2024-02-15T06:01:05;11.40;100.00
85333;DHT22;75747;53.652;10.168;2024-02-15T06:03:33;11.40;100.00
85333;DHT22;75747;53.652;10.168;2024-02-15T06:06:00;11.40;100.00
85333;DHT22;75747;53.652;10.168;2024-02-15T06:08:28;11.40;100.00
85333;DHT22;75747;53.652;10.168;2024-02-15T06:10:57;11.40;100.00
85333;DHT22;75747;53.652;10.168;2024-02-15T06:13:23;11.40;100.00
85333;DHT22;75747;53.652;10.168;2024-02-15T06:15:49;11.40;100.00
85333;DHT22;75747;53.652;10.168;2024-02-15T06:18:21;11.50;100.00
85333;DHT22;75747;53.652;10.168;2024-02-15T06:20:50;11.40;100.00
85333;DHT22;75747;53.652;10.168;2024-02-15T06:23:19;11.40;100.00
85333;DHT22;75747;53.652;10.168;2024-02-15T06:25:46;11.50;100.00
85333;DHT22;75747;53.652;10.168;2024-02-15T06:28:15;11.50;100.00
85333;DHT22;75747;53.652;10.168;2024-02-15T06:30:59;11.50;100.00
85333;DHT22;75747;53.652;10.168;2024-02-15T06:33:43;11.40;100.00
85333;DHT22;75747;53.652;10.168;2024-02-15T06:36:27;11.50;100.00
85333;DHT22;75747;53.652;10.168;2024-02-15T06:39:11;11.50;100.00
85333;DHT22;75747;53.652;10.168;2024-02-15T06:41:55;11.50;100.00
85333;DHT22;75747;53.652;10.168;2024-02-15T06:44:22;11.50;100.00
85333;DHT22;75747;53.652;10.168;2024-02-15T06:46:49;11.50;100.00
85333;DHT22;75747;53.652;10.168;2024-02-15T06:49:16;11.40;100.00
85333;DHT22;75747;53.652;10.168;2024-02-15T06:51:42;11.40;100.00
85333;DHT22;75747;53.652;10.168;2024-02-15T06:54:07;11.40;100.00
85333;DHT22;75747;53.652;10.168;2024-02-15T06:56:39;11.40;100.00
85333;DHT22;75747;53.652;10.168;2024-02-15T06:59:09;11.50;100.00
85333;DHT22;75747;53.652;10.168;2024-02-15T07:01:35;11.50;100.00
85333;DHT22;75747;53.652;10.168;2024-02-15T07:04:03;11.40;100.00
85333;DHT22;75747;53.652;10.168;2024-02-15T07:06:29;11.40;100.00
85333;DHT22;75747;53.652;10.168;2024-02-15T07:08:57;11.50;100.00
85333;DHT22;75747;53.652;10.168;2024-02-15T07:11:23;11.50;100.00
85333;DHT22;75747;53.652;10.168;2024-02-15T07:13:49;11.50;100.00
85333;DHT22;75747;53.652;10.168;2024-02-15T07:16:18;11.50;100.00
85333;DHT22;75747;53.652;10.168;2024-02-15T07:18:44;11.50;100.00
85333;DHT22;75747;53.652;10.168;2024-02-15T07:21:11;11.60;100.00
85333;DHT22;75747;53.652;10.168;2024-02-15T07:23:39;11.50;100.00
85333;DHT22;75747;53.652;10.168;2024-02-15T07:26:07;11.50;100.00
85333;DHT22;75747;53.652;10.168;2024-02-15T07:28:33;11.60;100.00
85333;DHT22;75747;53.652;10.168;2024-02-15T07:30:59;11.60;100.00
85333;DHT22;75747;53.652;10.168;2024-02-15T07:33:28;11.70;100.00
85333;DHT22;75747;53.652;10.168;2024-02-15T07:35:54;11.60;100.00
85333;DHT22;75747;53.652;10.168;2024-02-15T07:38:20;11.70;100.00
85333;DHT22;75747;53.652;10.168;2024-02-15T07:40:48;11.70;100.00
85333;DHT22;75747;53.652;10.168;2024-02-15T07:43:15;11.70;100.00
85333;DHT22;75747;53.652;10.168;2024-02-15T07:45:40;11.70;100.00
85333;DHT22;75747;53.652;10.168;2024-02-15T07:48:06;11.80;100.00
85333;DHT22;75747;53.652;10.168;2024-02-15T07:50:32;11.80;100.00
85333;DHT22;75747;53.652;10.168;2024-02-15T07:52:58;11.80;100.00
85333;DHT22;75747;53.652;10.168;2024-02-15T07:55:24;11.80;100.00
85333;DHT22;75747;53.652;10.168;2024-02-15T07:57:52;11.80;100.00
85333;DHT22;75747;53.652;10.168;2024-02-15T08:00:19;11.90;100.00
85333;DHT22;75747;53.652;10.168;2024-02-15T08:02:45;11.90;100.00
85333;DHT22;75747;53.652;10.168;2024-02-15T08:05:12;11.90;100.00
85333;DHT22;75747;53.652;10.168;2024-02-15T08:07:42;11.90;100.00
85333;DHT22;75747;53.652;10.168;2024-02-15T08:10:09;11.90;100.00
85333;DHT22;75747;53.652;10.168;2024-02-15T08:12:44;12.00;100.00
85333;DHT22;75747;53.652;10.168;2024-02-15T08:15:11;11.90;100.00
85333;DHT22;75747;53.652;10.168;2024-02-15T08:17:40;12.00;100.00
85333;DHT22;75747;53.652;10.168;2024-02-15T08:20:15;12.00;100.00
85333;DHT22;75747;53.652;10.168;2024-02-15T08:22:46;12.00;100.00
85333;DHT22;75747;53.652;10.168;2024-02-15T08:25:13;12.00;100.00
85333;DHT22;75747;53.652;10.168;2024-02-15T08:27:42;12.00;100.00
85333;DHT22;75747;53.652;10.168;2024-02-15T08:30:12;12.10;100.00
85333;DHT22;75747;53.652;10.168;2024-02-15T08:32:41;12.10;100.00
85333;DHT22;75747;53.652;10.168;2024-02-15T08:35:08;12.10;100.00
85333;DHT22;75747;53.652;10.168;2024-02-15T08:37:37;12.10;100.00
85333;DHT22;75747;53.652;10.168;2024-02-15T08:40:04;12.00;100.00
85333;DHT22;75747;53.652;10.168;2024-02-15T08:42:45;12.10;100.00
85333;DHT22;75747;53.652;10.168;2024-02-15T08:45:11;12.10;100.00
85333;DHT22;75747;53.652;10.168;2024-02-15T08:47:42;12.10;100.00
85333;DHT22;75747;53.652;10.168;2024-02-15T08:50:09;12.20;100.00
85333;DHT22;75747;53.652;10.168;2024-02-15T08:52:39;12.30;100.00
85333;DHT22;75747;53.652;10.168;2024-02-15T08:55:09;12.30;100.00
85333;DHT22;75747;53.652;10.168;2024-02-15T08:57:35;12.40;100.00
85333;DHT22;75747;53.652;10.168;2024-02-15T09:00:05;12.40;100.00
85333;DHT22;75747;53.652;10.168;2024-02-15T09:02:48;12.50;100.00
85333;DHT22;75747;53.652;10.168;2024-02-15T09:05:16;12.50;100.00
85333;DHT22;75747;53.652;10.168;2024-02-15T09:07:45;12.50;100.00
85333;DHT22;75747;53.652;10.168;2024-02-15T09:10:14;12.60;100.00
85333;DHT22;75747;53.652;10.168;2024-02-15T09:12:41;12.70;100.00
85333;DHT22;75747;53.652;10.168;2024-02-15T09:15:08;12.80;100.00
85333;DHT22;75747;53.652;10.168;2024-02-15T09:17:37;12.80;100.00
85333;DHT22;75747;53.652;10.168;2024-02-15T09:20:10;12.80;100.00
85333;DHT22;75747;53.652;10.168;2024-02-15T09:22:52;12.90;100.00
85333;DHT22;75747;53.652;10.168;2024-02-15T09:25:20;13.00;100.00
85333;DHT22;75747;53.652;10.168;2024-02-15T09:27:48;13.10;100.00
85333;DHT22;75747;53.652;10.168;2024-02-15T09:30:15;13.10;100.00
85333;DHT22;75747;53.652;10.168;2024-02-15T09:32:42;13.10;100.00
85333;DHT22;75747;53.652;10.168;2024-02-15T09:35:09;13.20;100.00
85333;DHT22;75747;53.652;10.168;2024-02-15T09:37:46;13.10;100.00
85333;DHT22;75747;53.652;10.168;2024-02-15T09:40:14;13.10;100.00
85333;DHT22;75747;53.652;10.168;2024-02-15T09:42:41;13.10;100.00
85333;DHT22;75747;53.652;10.168;2024-02-15T09:45:10;13.20;100.00
85333;DHT22;75747;53.652;10.168;2024-02-15T09:47:37;13.30;100.00
85333;DHT22;75747;53.652;10.168;2024-02-15T09:50:09;13.40;100.00
85333;DHT22;75747;53.652;10.168;2024-02-15T09:52:59;13.40;100.00
85333;DHT22;75747;53.652;10.168;2024-02-15T09:55:28;13.40;100.00
85333;DHT22;75747;53.652;10.168;2024-02-15T09:57:55;13.30;100.00
85333;DHT22;75747;53.652;10.168;2024-02-15T10:00:20;13.40;100.00
85333;DHT22;75747;53.652;10.168;2024-02-15T10:02:53;13.40;100.00
85333;DHT22;75747;53.652;10.168;2024-02-15T10:05:19;13.30;100.00
85333;DHT22;75747;53.652;10.168;2024-02-15T10:07:45;13.40;100.00
85333;DHT22;75747;53.652;10.168;2024-02-15T10:10:19;13.40;100.00
85333;DHT22;75747;53.652;10.168;2024-02-15T10:12:48;13.40;100.00
85333;DHT22;75747;53.652;10.168;2024-02-15T10:17:59;13.40;100.00
85333;DHT22;75747;53.652;10.168;2024-02-15T10:20:25;13.40;100.00
85333;DHT22;75747;53.652;10.168;2024-02-15T10:22:53;13.40;100.00
85333;DHT22;75747;53.652;10.168;2024-02-15T10:25:20;13.50;100.00
85333;DHT22;75747;53.652;10.168;2024-02-15T10:27:47;13.40;100.00
85333;DHT22;75747;53.652;10.168;2024-02-15T10:30:17;13.30;100.00
85333;DHT22;75747;53.652;10.168;2024-02-15T10:32:43;13.30;100.00
85333;DHT22;75747;53.652;10.168;2024-02-15T10:35:10;13.30;100.00
85333;DHT22;75747;53.652;10.168;2024-02-15T10:37:41;13.30;100.00
85333;DHT22;75747;53.652;10.168;2024-02-15T10:40:07;13.30;100.00
85333;DHT22;75747;53.652;10.168;2024-02-15T10:42:36;13.40;100.00
85333;DHT22;75747;53.652;10.168;2024-02-15T10:45:05;13.40;100.00
85333;DHT22;75747;53.652;10.168;2024-02-15T10:47:34;13.30;100.00
85333;DHT22;75747;53.652;10.168;2024-02-15T10:50:02;13.40;100.00
85333;DHT22;75747;53.652;10.168;2024-02-15T10:52:31;13.40;100.00
85333;DHT22;75747;53.652;10.168;2024-02-15T10:55:03;13.50;100.00
85333;DHT22;75747;53.652;10.168;2024-02-15T10:57:31;13.50;100.00
85333;DHT22;75747;53.652;10.168;2024-02-15T10:59:59;13.60;100.00
85333;DHT22;75747;53.652;10.168;2024-02-15T11:02:37;13.60;100.00
85333;DHT22;75747;53.652;10.168;2024-02-15T11:05:08;13.70;100.00
85333;DHT22;75747;53.652;10.168;2024-02-15T11:07:37;13.70;100.00
85333;DHT22;75747;53.652;10.168;2024-02-15T11:10:05;13.80;100.00
85333;DHT22;75747;53.652;10.168;2024-02-15T11:12:36;13.90;100.00
85333;DHT22;75747;53.652;10.168;2024-02-15T11:15:03;14.00;100.00
85333;DHT22;75747;53.652;10.168;2024-02-15T11:23:02;14.10;100.00
85333;DHT22;75747;53.652;10.168;2024-02-15T11:25:32;14.10;100.00
85333;DHT22;75747;53.652;10.168;2024-02-15T11:30:55;14.20;100.00
85333;DHT22;75747;53.652;10.168;2024-02-15T11:33:34;14.10;100.00
85333;DHT22;75747;53.652;10.168;2024-02-15T11:36:07;14.10;100.00
85333;DHT22;75747;53.652;10.168;2024-02-15T11:38:34;14.10;100.00
85333;DHT22;75747;53.652;10.168;2024-02-15T11:41:06;14.10;100.00
85333;DHT22;75747;53.652;10.168;2024-02-15T11:46:22;13.90;100.00
85333;DHT22;75747;53.652;10.168;2024-02-15T11:48:51;13.90;100.00
85333;DHT22;75747;53.652;10.168;2024-02-15T11:51:33;13.90;100.00
85333;DHT22;75747;53.652;10.168;2024-02-15T11:54:06;13.90;100.00
85333;DHT22;75747;53.652;10.168;2024-02-15T11:56:48;13.80;100.00
85333;DHT22;75747;53.652;10.168;2024-02-15T11:59:16;13.80;100.00
85333;DHT22;75747;53.652;10.168;2024-02-15T12:01:56;13.70;100.00
85333;DHT22;75747;53.652;10.168;2024-02-15T12:04:40;13.70;100.00
85333;DHT22;75747;53.652;10.168;2024-02-15T12:07:25;13.60;100.00
85333;DHT22;75747;53.652;10.168;2024-02-15T12:10:18;13.60;100.00
85333;DHT22;75747;53.652;10.168;2024-02-15T12:13:02;13.60;100.00
85333;DHT22;75747;53.652;10.168;2024-02-15T12:15:59;13.50;100.00
85333;DHT22;75747;53.652;10.168;2024-02-15T12:18:43;13.50;100.00
85333;DHT22;75747;53.652;10.168;2024-02-15T12:21:15;13.40;100.00
85333;DHT22;75747;53.652;10.168;2024-02-15T12:23:42;13.40;100.00
85333;DHT22;75747;53.652;10.168;2024-02-15T12:26:08;13.40;100.00
85333;DHT22;75747;53.652;10.168;2024-02-15T12:28:34;13.50;100.00
85333;DHT22;75747;53.652;10.168;2024-02-15T12:31:02;13.50;100.00
85333;DHT22;75747;53.652;10.168;2024-02-15T12:33:28;13.50;100.00
85333;DHT22;75747;53.652;10.168;2024-02-15T12:36:06;13.50;100.00
85333;DHT22;75747;53.652;10.168;2024-02-15T12:38:32;13.40;100.00
85333;DHT22;75747;53.652;10.168;2024-02-15T12:40:59;13.40;100.00
85333;DHT22;75747;53.652;10.168;2024-02-15T12:43:28;13.40;100.00
85333;DHT22;75747;53.652;10.168;2024-02-15T12:45:53;13.40;100.00
85333;DHT22;75747;53.652;10.168;2024-02-15T12:48:22;13.30;100.00
85333;DHT22;75747;53.652;10.168;2024-02-15T12:50:48;13.20;100.00
85333;DHT22;75747;53.652;10.168;2024-02-15T12:53:21;13.20;100.00
85333;DHT22;75747;53.652;10.168;2024-02-15T12:55:55;13.20;100.00
85333;DHT22;75747;53.652;10.168;2024-02-15T12:58:21;13.20;100.00
85333;DHT22;75747;53.652;10.168;2024-02-15T13:00:50;13.20;100.00
85333;DHT22;75747;53.652;10.168;2024-02-15T13:03:15;13.20;100.00
85333;DHT22;75747;53.652;10.168;2024-02-15T13:05:43;13.10;100.00
85333;DHT22;75747;53.652;10.168;2024-02-15T13:08:09;13.10;100.00
85333;DHT22;75747;53.652;10.168;2024-02-15T13:10:42;13.20;100.00
85333;DHT22;75747;53.652;10.168;2024-02-15T13:13:08;13.20;100.00
85333;DHT22;75747;53.652;10.168;2024-02-15T13:15:59;13.10;100.00
85333;DHT22;75747;53.652;10.168;2024-02-15T13:18:26;13.10;100.00
85333;DHT22;75747;53.652;10.168;2024-02-15T13:20:53;13.10;100.00
85333;DHT22;75747;53.652;10.168;2024-02-15T13:23:19;13.10;100.00
85333;DHT22;75747;53.652;10.168;2024-02-15T13:25:49;13.10;100.00
85333;DHT22;75747;53.652;10.168;2024-02-15T13:28:14;13.20;100.00
85333;DHT22;75747;53.652;10.168;2024-02-15T13:30:41;13.20;100.00
85333;DHT22;75747;53.652;10.168;2024-02-15T13:33:09;13.20;100.00
85333;DHT22;75747;53.652;10.168;2024-02-15T13:35:34;13.20;100.00
85333;DHT22;75747;53.652;10.168;2024-02-15T13:38:01;13.20;100.00
85333;DHT22;75747;53.652;10.168;2024-02-15T13:40:28;13.20;100.00
85333;DHT22;75747;53.652;10.168;2024-02-15T13:42:58;13.20;100.00
85333;DHT22;75747;53.652;10.168;2024-02-15T13:45:26;13.20;100.00
85333;DHT22;75747;53.652;10.168;2024-02-15T13:47:56;13.20;100.00
85333;DHT22;75747;53.652;10.168;2024-02-15T13:50:23;13.20;100.00
85333;DHT22;75747;53.652;10.168;2024-02-15T13:52:49;13.10;100.00
85333;DHT22;75747;53.652;10.168;2024-02-15T13:55:16;13.10;100.00
85333;DHT22;75747;53.652;10.168;2024-02-15T13:57:44;13.10;100.00
85333;DHT22;75747;53.652;10.168;2024-02-15T14:00:11;13.10;100.00
85333;DHT22;75747;53.652;10.168;2024-02-15T14:02:47;13.10;100.00
85333;DHT22;75747;53.652;10.168;2024-02-15T14:05:13;13.10;100.00
85333;DHT22;75747;53.652;10.168;2024-02-15T14:07:39;13.10;100.00
85333;DHT22;75747;53.652;10.168;2024-02-15T14:10:05;13.10;100.00
85333;DHT22;75747;53.652;10.168;2024-02-15T14:12:31;13.10;100.00
85333;DHT22;75747;53.652;10.168;2024-02-15T14:14:57;13.10;100.00
85333;DHT22;75747;53.652;10.168;2024-02-15T14:17:23;13.00;100.00
85333;DHT22;75747;53.652;10.168;2024-02-15T14:19:49;13.10;100.00
85333;DHT22;75747;53.652;10.168;2024-02-15T14:22:15;13.10;100.00
85333;DHT22;75747;53.652;10.168;2024-02-15T14:24:44;13.00;100.00
85333;DHT22;75747;53.652;10.168;2024-02-15T14:27:13;13.00;100.00
85333;DHT22;75747;53.652;10.168;2024-02-15T14:29:40;13.10;100.00
85333;DHT22;75747;53.652;10.168;2024-02-15T14:32:25;13.00;100.00
85333;DHT22;75747;53.652;10.168;2024-02-15T14:35:09;13.00;100.00
85333;DHT22;75747;53.652;10.168;2024-02-15T14:37:35;13.00;100.00
85333;DHT22;75747;53.652;10.168;2024-02-15T14:40:02;13.00;100.00
85333;DHT22;75747;53.652;10.168;2024-02-15T14:42:29;13.00;100.00
85333;DHT22;75747;53.652;10.168;2024-02-15T14:44:54;12.90;100.00
85333;DHT22;75747;53.652;10.168;2024-02-15T14:47:20;12.90;100.00
85333;DHT22;75747;53.652;10.168;2024-02-15T14:49:46;12.90;100.00
85333;DHT22;75747;53.652;10.168;2024-02-15T14:52:11;13.00;100.00
85333;DHT22;75747;53.652;10.168;2024-02-15T14:54:38;12.90;100.00
85333;DHT22;75747;53.652;10.168;2024-02-15T14:57:04;13.00;100.00
85333;DHT22;75747;53.652;10.168;2024-02-15T14:59:30;13.00;100.00
85333;DHT22;75747;53.652;10.168;2024-02-15T15:01:56;13.00;100.00
85333;DHT22;75747;53.652;10.168;2024-02-15T15:04:25;13.00;100.00
85333;DHT22;75747;53.652;10.168;2024-02-15T15:07:00;13.00;100.00
85333;DHT22;75747;53.652;10.168;2024-02-15T15:09:44;13.00;100.00
85333;DHT22;75747;53.652;10.168;2024-02-15T15:12:28;12.90;100.00
85333;DHT22;75747;53.652;10.168;2024-02-15T15:15:05;12.90;100.00
85333;DHT22;75747;53.652;10.168;2024-02-15T15:17:32;13.00;100.00
85333;DHT22;75747;53.652;10.168;2024-02-15T15:19:59;13.00;100.00
85333;DHT22;75747;53.652;10.168;2024-02-15T15:22:26;12.90;100.00
85333;DHT22;75747;53.652;10.168;2024-02-15T15:24:51;12.90;100.00